sensor_id;sensor_type;location;lat;lon;timestamp;P1;durP1;ratioP1;P2;durP2;ratioP2
67869;SDS011;54673;52.262;6.830;2023-03-01T00:02:04;2.78;;;2.03;;
67869;SDS011;54673;52.262;6.830;2023-03-01T00:04:30;2.33;;;1.80;;
67869;SDS011;54673;52.262;6.830;2023-03-01T00:06:56;3.97;;;2.30;;
67869;SDS011;54673;52.262;6.830;2023-03-01T00:09:21;3.53;;;2.40;;
67869;SDS011;54673;52.262;6.830;2023-03-01T00:11:47;3.63;;;2.30;;
67869;SDS011;54673;52.262;6.830;2023-03-01T00:14:13;3.42;;;2.13;;
67869;SDS011;54673;52.262;6.830;2023-03-01T00:16:39;2.83;;;2.10;;
67869;SDS011;54673;52.262;6.830;2023-03-01T00:19:07;2.75;;;2.10;;
67869;SDS011;54673;52.262;6.830;2023-03-01T00:21:37;4.68;;;2.10;;
67869;SDS011;54673;52.262;6.830;2023-03-01T00:24:03;3.70;;;2.40;;
67869;SDS011;54673;52.262;6.830;2023-03-01T00:26:29;3.40;;;2.70;;
67869;SDS011;54673;52.262;6.830;2023-03-01T00:28:56;3.03;;;2.10;;
67869;SDS011;54673;52.262;6.830;2023-03-01T00:31:23;2.72;;;2.05;;
67869;SDS011;54673;52.262;6.830;2023-03-01T00:33:54;4.20;;;2.20;;
67869;SDS011;54673;52.262;6.830;2023-03-01T00:36:22;2.80;;;2.20;;
67869;SDS011;54673;52.262;6.830;2023-03-01T00:38:49;3.10;;;2.47;;
67869;SDS011;54673;52.262;6.830;2023-03-01T00:41:15;5.00;;;2.60;;
67869;SDS011;54673;52.262;6.830;2023-03-01T00:43:42;4.43;;;2.80;;
67869;SDS011;54673;52.262;6.830;2023-03-01T00:46:13;3.73;;;2.63;;
67869;SDS011;54673;52.262;6.830;2023-03-01T00:48:43;3.08;;;2.40;;
67869;SDS011;54673;52.262;6.830;2023-03-01T00:51:11;3.05;;;2.10;;
67869;SDS011;54673;52.262;6.830;2023-03-01T00:53:37;3.87;;;2.60;;
67869;SDS011;54673;52.262;6.830;2023-03-01T00:56:04;3.80;;;2.90;;
67869;SDS011;54673;52.262;6.830;2023-03-01T00:58:31;3.42;;;2.47;;
67869;SDS011;54673;52.262;6.830;2023-03-01T01:00:57;3.60;;;2.27;;
67869;SDS011;54673;52.262;6.830;2023-03-01T01:03:22;3.67;;;2.40;;
67869;SDS011;54673;52.262;6.830;2023-03-01T01:05:50;5.13;;;2.47;;
67869;SDS011;54673;52.262;6.830;2023-03-01T01:08:16;3.78;;;2.55;;
67869;SDS011;54673;52.262;6.830;2023-03-01T01:10:43;4.20;;;2.40;;
67869;SDS011;54673;52.262;6.830;2023-03-01T01:13:09;3.23;;;2.53;;
67869;SDS011;54673;52.262;6.830;2023-03-01T01:15:35;4.82;;;2.88;;
67869;SDS011;54673;52.262;6.830;2023-03-01T01:18:01;3.73;;;2.40;;
67869;SDS011;54673;52.262;6.830;2023-03-01T01:20:27;4.25;;;2.88;;
67869;SDS011;54673;52.262;6.830;2023-03-01T01:22:52;4.90;;;2.70;;
67869;SDS011;54673;52.262;6.830;2023-03-01T01:25:18;3.53;;;2.55;;
67869;SDS011;54673;52.262;6.830;2023-03-01T01:27:44;4.00;;;2.20;;
67869;SDS011;54673;52.262;6.830;2023-03-01T01:30:09;3.92;;;2.90;;
67869;SDS011;54673;52.262;6.830;2023-03-01T01:32:36;5.03;;;3.00;;
67869;SDS011;54673;52.262;6.830;2023-03-01T01:35:01;4.70;;;2.83;;
67869;SDS011;54673;52.262;6.830;2023-03-01T01:37:27;5.17;;;2.70;;
67869;SDS011;54673;52.262;6.830;2023-03-01T01:39:58;3.70;;;2.80;;
67869;SDS011;54673;52.262;6.830;2023-03-01T01:42:24;4.30;;;2.80;;
67869;SDS011;54673;52.262;6.830;2023-03-01T01:47:50;5.00;;;2.65;;
67869;SDS011;54673;52.262;6.830;2023-03-01T01:50:17;4.50;;;2.60;;
67869;SDS011;54673;52.262;6.830;2023-03-01T01:52:44;5.55;;;3.10;;
67869;SDS011;54673;52.262;6.830;2023-03-01T01:55:14;3.63;;;2.80;;
67869;SDS011;54673;52.262;6.830;2023-03-01T01:57:45;5.20;;;3.05;;
67869;SDS011;54673;52.262;6.830;2023-03-01T02:00:31;3.70;;;2.53;;
67869;SDS011;54673;52.262;6.830;2023-03-01T02:02:58;5.43;;;2.93;;
67869;SDS011;54673;52.262;6.830;2023-03-01T02:08:19;4.57;;;3.00;;
67869;SDS011;54673;52.262;6.830;2023-03-01T02:10:46;5.40;;;2.88;;
67869;SDS011;54673;52.262;6.830;2023-03-01T02:13:14;5.33;;;3.43;;
67869;SDS011;54673;52.262;6.830;2023-03-01T02:15:40;4.30;;;2.97;;
67869;SDS011;54673;52.262;6.830;2023-03-01T02:18:06;4.63;;;2.90;;
67869;SDS011;54673;52.262;6.830;2023-03-01T02:23:27;4.28;;;2.95;;
67869;SDS011;54673;52.262;6.830;2023-03-01T02:26:10;3.60;;;2.87;;
67869;SDS011;54673;52.262;6.830;2023-03-01T02:28:49;6.43;;;3.33;;
67869;SDS011;54673;52.262;6.830;2023-03-01T02:31:16;5.45;;;3.30;;
67869;SDS011;54673;52.262;6.830;2023-03-01T02:34:02;4.17;;;3.00;;
67869;SDS011;54673;52.262;6.830;2023-03-01T02:36:31;4.03;;;3.00;;
67869;SDS011;54673;52.262;6.830;2023-03-01T02:39:01;3.87;;;3.10;;
67869;SDS011;54673;52.262;6.830;2023-03-01T02:41:31;6.63;;;3.28;;
67869;SDS011;54673;52.262;6.830;2023-03-01T02:44:00;6.97;;;3.38;;
67869;SDS011;54673;52.262;6.830;2023-03-01T02:46:26;3.17;;;2.70;;
67869;SDS011;54673;52.262;6.830;2023-03-01T02:48:53;5.60;;;3.10;;
67869;SDS011;54673;52.262;6.830;2023-03-01T02:57:00;6.30;;;3.20;;
67869;SDS011;54673;52.262;6.830;2023-03-01T02:59:27;4.47;;;3.33;;
67869;SDS011;54673;52.262;6.830;2023-03-01T03:01:56;5.22;;;3.40;;
67869;SDS011;54673;52.262;6.830;2023-03-01T03:04:21;5.37;;;3.20;;
67869;SDS011;54673;52.262;6.830;2023-03-01T03:06:48;4.77;;;3.10;;
67869;SDS011;54673;52.262;6.830;2023-03-01T03:09:14;4.95;;;3.28;;
67869;SDS011;54673;52.262;6.830;2023-03-01T03:11:41;4.70;;;3.23;;
67869;SDS011;54673;52.262;6.830;2023-03-01T03:14:11;4.55;;;3.05;;
67869;SDS011;54673;52.262;6.830;2023-03-01T03:16:50;3.88;;;2.97;;
67869;SDS011;54673;52.262;6.830;2023-03-01T03:19:16;5.10;;;3.10;;
67869;SDS011;54673;52.262;6.830;2023-03-01T03:21:43;5.07;;;3.28;;
67869;SDS011;54673;52.262;6.830;2023-03-01T03:24:09;5.33;;;2.97;;
67869;SDS011;54673;52.262;6.830;2023-03-01T03:26:35;3.88;;;2.88;;
67869;SDS011;54673;52.262;6.830;2023-03-01T03:29:01;5.00;;;3.17;;
67869;SDS011;54673;52.262;6.830;2023-03-01T03:31:26;5.95;;;3.28;;
67869;SDS011;54673;52.262;6.830;2023-03-01T03:33:53;4.50;;;3.23;;
67869;SDS011;54673;52.262;6.830;2023-03-01T03:36:20;4.05;;;3.10;;
67869;SDS011;54673;52.262;6.830;2023-03-01T03:38:48;5.03;;;3.00;;
67869;SDS011;54673;52.262;6.830;2023-03-01T03:41:13;6.13;;;2.87;;
67869;SDS011;54673;52.262;6.830;2023-03-01T03:43:39;3.67;;;2.83;;
67869;SDS011;54673;52.262;6.830;2023-03-01T03:46:07;4.20;;;3.07;;
67869;SDS011;54673;52.262;6.830;2023-03-01T03:48:43;4.85;;;3.15;;
67869;SDS011;54673;52.262;6.830;2023-03-01T03:51:13;5.35;;;2.60;;
67869;SDS011;54673;52.262;6.830;2023-03-01T03:53:41;4.23;;;3.00;;
67869;SDS011;54673;52.262;6.830;2023-03-01T03:56:07;4.25;;;2.88;;
67869;SDS011;54673;52.262;6.830;2023-03-01T03:58:33;5.73;;;3.00;;
67869;SDS011;54673;52.262;6.830;2023-03-01T04:00:59;3.20;;;2.88;;
67869;SDS011;54673;52.262;6.830;2023-03-01T04:03:26;4.83;;;2.83;;
67869;SDS011;54673;52.262;6.830;2023-03-01T04:05:53;4.45;;;3.15;;
67869;SDS011;54673;52.262;6.830;2023-03-01T04:08:20;4.75;;;2.80;;
67869;SDS011;54673;52.262;6.830;2023-03-01T04:10:48;6.67;;;3.00;;
67869;SDS011;54673;52.262;6.830;2023-03-01T04:13:19;5.43;;;3.35;;
67869;SDS011;54673;52.262;6.830;2023-03-01T04:15:47;3.67;;;2.80;;
67869;SDS011;54673;52.262;6.830;2023-03-01T04:18:17;3.55;;;2.97;;
67869;SDS011;54673;52.262;6.830;2023-03-01T04:20:45;3.17;;;2.80;;
67869;SDS011;54673;52.262;6.830;2023-03-01T04:23:18;3.50;;;2.70;;
67869;SDS011;54673;52.262;6.830;2023-03-01T04:25:46;4.22;;;2.72;;
67869;SDS011;54673;52.262;6.830;2023-03-01T04:28:20;3.90;;;2.73;;
67869;SDS011;54673;52.262;6.830;2023-03-01T04:30:47;4.35;;;2.90;;
67869;SDS011;54673;52.262;6.830;2023-03-01T04:33:13;3.83;;;2.47;;
67869;SDS011;54673;52.262;6.830;2023-03-01T04:35:38;3.63;;;2.60;;
67869;SDS011;54673;52.262;6.830;2023-03-01T04:38:05;3.78;;;2.50;;
67869;SDS011;54673;52.262;6.830;2023-03-01T04:40:31;4.83;;;2.60;;
67869;SDS011;54673;52.262;6.830;2023-03-01T04:42:57;3.90;;;2.72;;
67869;SDS011;54673;52.262;6.830;2023-03-01T04:45:22;5.07;;;2.30;;
67869;SDS011;54673;52.262;6.830;2023-03-01T04:47:48;4.13;;;2.58;;
67869;SDS011;54673;52.262;6.830;2023-03-01T04:50:17;3.35;;;2.65;;
67869;SDS011;54673;52.262;6.830;2023-03-01T04:52:45;3.80;;;2.70;;
67869;SDS011;54673;52.262;6.830;2023-03-01T04:55:11;4.55;;;2.50;;
67869;SDS011;54673;52.262;6.830;2023-03-01T04:57:37;2.77;;;2.37;;
67869;SDS011;54673;52.262;6.830;2023-03-01T05:00:04;2.50;;;2.10;;
67869;SDS011;54673;52.262;6.830;2023-03-01T05:02:56;3.85;;;2.55;;
67869;SDS011;54673;52.262;6.830;2023-03-01T05:05:28;4.63;;;2.50;;
67869;SDS011;54673;52.262;6.830;2023-03-01T05:07:59;3.20;;;2.42;;
67869;SDS011;54673;52.262;6.830;2023-03-01T05:10:27;5.40;;;2.50;;
67869;SDS011;54673;52.262;6.830;2023-03-01T05:12:55;3.38;;;2.28;;
67869;SDS011;54673;52.262;6.830;2023-03-01T05:15:22;3.55;;;2.05;;
67869;SDS011;54673;52.262;6.830;2023-03-01T05:17:50;2.87;;;2.30;;
67869;SDS011;54673;52.262;6.830;2023-03-01T05:20:16;3.10;;;2.10;;
67869;SDS011;54673;52.262;6.830;2023-03-01T05:22:43;4.00;;;2.20;;
67869;SDS011;54673;52.262;6.830;2023-03-01T05:25:08;4.35;;;2.17;;
67869;SDS011;54673;52.262;6.830;2023-03-01T05:27:34;4.00;;;2.10;;
67869;SDS011;54673;52.262;6.830;2023-03-01T05:30:00;3.30;;;2.57;;
67869;SDS011;54673;52.262;6.830;2023-03-01T05:32:38;3.47;;;2.30;;
67869;SDS011;54673;52.262;6.830;2023-03-01T05:35:08;2.67;;;2.13;;
67869;SDS011;54673;52.262;6.830;2023-03-01T05:37:38;3.38;;;2.28;;
67869;SDS011;54673;52.262;6.830;2023-03-01T05:40:11;2.60;;;2.10;;
67869;SDS011;54673;52.262;6.830;2023-03-01T05:42:55;4.40;;;2.83;;
67869;SDS011;54673;52.262;6.830;2023-03-01T05:45:22;4.45;;;2.60;;
67869;SDS011;54673;52.262;6.830;2023-03-01T05:47:49;4.53;;;2.33;;
67869;SDS011;54673;52.262;6.830;2023-03-01T05:52:44;3.38;;;2.70;;
67869;SDS011;54673;52.262;6.830;2023-03-01T05:55:10;3.93;;;2.90;;
67869;SDS011;54673;52.262;6.830;2023-03-01T05:57:36;3.93;;;2.50;;
67869;SDS011;54673;52.262;6.830;2023-03-01T06:00:02;4.53;;;2.50;;
67869;SDS011;54673;52.262;6.830;2023-03-01T06:02:28;3.93;;;2.53;;
67869;SDS011;54673;52.262;6.830;2023-03-01T06:04:54;4.80;;;2.80;;
67869;SDS011;54673;52.262;6.830;2023-03-01T06:07:20;3.85;;;2.33;;
67869;SDS011;54673;52.262;6.830;2023-03-01T06:09:45;3.77;;;2.50;;
67869;SDS011;54673;52.262;6.830;2023-03-01T06:12:11;3.43;;;2.60;;
67869;SDS011;54673;52.262;6.830;2023-03-01T06:14:36;4.65;;;2.50;;
67869;SDS011;54673;52.262;6.830;2023-03-01T06:17:02;3.60;;;2.30;;
67869;SDS011;54673;52.262;6.830;2023-03-01T06:19:28;5.30;;;2.50;;
67869;SDS011;54673;52.262;6.830;2023-03-01T06:21:54;3.77;;;2.50;;
67869;SDS011;54673;52.262;6.830;2023-03-01T06:24:19;3.90;;;2.97;;
67869;SDS011;54673;52.262;6.830;2023-03-01T06:26:45;4.20;;;2.90;;
67869;SDS011;54673;52.262;6.830;2023-03-01T06:29:10;3.27;;;2.20;;
67869;SDS011;54673;52.262;6.830;2023-03-01T06:31:36;3.80;;;2.70;;
67869;SDS011;54673;52.262;6.830;2023-03-01T06:34:01;6.07;;;2.88;;
67869;SDS011;54673;52.262;6.830;2023-03-01T06:36:27;4.20;;;2.43;;
67869;SDS011;54673;52.262;6.830;2023-03-01T06:38:53;4.15;;;2.80;;
67869;SDS011;54673;52.262;6.830;2023-03-01T06:41:18;4.07;;;2.60;;
67869;SDS011;54673;52.262;6.830;2023-03-01T06:43:44;5.00;;;2.63;;
67869;SDS011;54673;52.262;6.830;2023-03-01T06:46:09;3.20;;;2.30;;
67869;SDS011;54673;52.262;6.830;2023-03-01T06:48:35;4.23;;;2.67;;
67869;SDS011;54673;52.262;6.830;2023-03-01T06:51:01;4.30;;;2.60;;
67869;SDS011;54673;52.262;6.830;2023-03-01T06:53:27;3.85;;;2.60;;
67869;SDS011;54673;52.262;6.830;2023-03-01T06:55:53;3.50;;;2.60;;
67869;SDS011;54673;52.262;6.830;2023-03-01T06:58:20;3.25;;;2.60;;
67869;SDS011;54673;52.262;6.830;2023-03-01T07:00:46;6.27;;;2.63;;
67869;SDS011;54673;52.262;6.830;2023-03-01T07:03:11;5.00;;;2.50;;
67869;SDS011;54673;52.262;6.830;2023-03-01T07:05:37;3.20;;;2.20;;
67869;SDS011;54673;52.262;6.830;2023-03-01T07:08:02;3.63;;;2.60;;
67869;SDS011;54673;52.262;6.830;2023-03-01T07:10:28;3.65;;;2.47;;
67869;SDS011;54673;52.262;6.830;2023-03-01T07:12:54;3.40;;;2.53;;
67869;SDS011;54673;52.262;6.830;2023-03-01T07:15:22;4.32;;;2.55;;
67869;SDS011;54673;52.262;6.830;2023-03-01T07:17:49;3.70;;;2.40;;
67869;SDS011;54673;52.262;6.830;2023-03-01T07:20:15;3.65;;;2.47;;
67869;SDS011;54673;52.262;6.830;2023-03-01T07:22:42;3.23;;;2.23;;
67869;SDS011;54673;52.262;6.830;2023-03-01T07:25:07;4.13;;;2.33;;
67869;SDS011;54673;52.262;6.830;2023-03-01T07:27:34;3.37;;;2.60;;
67869;SDS011;54673;52.262;6.830;2023-03-01T07:29:59;4.30;;;2.75;;
67869;SDS011;54673;52.262;6.830;2023-03-01T07:32:25;3.83;;;2.60;;
67869;SDS011;54673;52.262;6.830;2023-03-01T07:34:51;4.10;;;2.78;;
67869;SDS011;54673;52.262;6.830;2023-03-01T07:37:16;4.03;;;2.40;;
67869;SDS011;54673;52.262;6.830;2023-03-01T07:39:42;3.92;;;2.53;;
67869;SDS011;54673;52.262;6.830;2023-03-01T07:42:08;4.33;;;2.30;;
67869;SDS011;54673;52.262;6.830;2023-03-01T07:44:33;3.33;;;2.27;;
67869;SDS011;54673;52.262;6.830;2023-03-01T07:47:03;3.88;;;2.20;;
67869;SDS011;54673;52.262;6.830;2023-03-01T07:49:28;4.80;;;2.28;;
67869;SDS011;54673;52.262;6.830;2023-03-01T07:51:54;4.23;;;2.50;;
67869;SDS011;54673;52.262;6.830;2023-03-01T07:54:20;4.00;;;2.37;;
67869;SDS011;54673;52.262;6.830;2023-03-01T07:56:45;3.63;;;1.98;;
67869;SDS011;54673;52.262;6.830;2023-03-01T07:59:11;5.47;;;2.13;;
67869;SDS011;54673;52.262;6.830;2023-03-01T08:01:36;5.25;;;2.20;;
67869;SDS011;54673;52.262;6.830;2023-03-01T08:04:02;3.33;;;2.27;;
67869;SDS011;54673;52.262;6.830;2023-03-01T08:06:29;3.53;;;1.90;;
67869;SDS011;54673;52.262;6.830;2023-03-01T08:08:55;5.37;;;1.90;;
67869;SDS011;54673;52.262;6.830;2023-03-01T08:11:21;2.83;;;2.07;;
67869;SDS011;54673;52.262;6.830;2023-03-01T08:13:47;10.60;;;2.00;;
67869;SDS011;54673;52.262;6.830;2023-03-01T08:16:14;3.33;;;2.00;;
67869;SDS011;54673;52.262;6.830;2023-03-01T08:18:40;4.07;;;1.90;;
67869;SDS011;54673;52.262;6.830;2023-03-01T08:21:07;2.60;;;1.80;;
67869;SDS011;54673;52.262;6.830;2023-03-01T08:23:35;2.70;;;1.63;;
67869;SDS011;54673;52.262;6.830;2023-03-01T08:26:09;4.72;;;1.83;;
67869;SDS011;54673;52.262;6.830;2023-03-01T08:28:37;5.35;;;1.70;;
67869;SDS011;54673;52.262;6.830;2023-03-01T08:31:03;3.60;;;1.60;;
67869;SDS011;54673;52.262;6.830;2023-03-01T08:33:38;2.72;;;1.70;;
67869;SDS011;54673;52.262;6.830;2023-03-01T08:36:04;3.17;;;1.47;;
67869;SDS011;54673;52.262;6.830;2023-03-01T08:38:31;2.67;;;1.70;;
67869;SDS011;54673;52.262;6.830;2023-03-01T08:41:01;3.17;;;1.70;;
67869;SDS011;54673;52.262;6.830;2023-03-01T08:43:28;7.40;;;1.65;;
67869;SDS011;54673;52.262;6.830;2023-03-01T08:45:54;2.30;;;1.70;;
67869;SDS011;54673;52.262;6.830;2023-03-01T08:48:19;4.18;;;1.90;;
67869;SDS011;54673;52.262;6.830;2023-03-01T08:50:45;2.70;;;1.50;;
67869;SDS011;54673;52.262;6.830;2023-03-01T08:53:10;2.47;;;1.63;;
67869;SDS011;54673;52.262;6.830;2023-03-01T08:55:36;7.30;;;1.47;;
67869;SDS011;54673;52.262;6.830;2023-03-01T08:58:02;2.97;;;1.50;;
67869;SDS011;54673;52.262;6.830;2023-03-01T09:00:27;3.63;;;1.70;;
67869;SDS011;54673;52.262;6.830;2023-03-01T09:02:53;1.97;;;1.30;;
67869;SDS011;54673;52.262;6.830;2023-03-01T09:05:18;3.80;;;1.20;;
67869;SDS011;54673;52.262;6.830;2023-03-01T09:07:44;2.67;;;1.30;;
67869;SDS011;54673;52.262;6.830;2023-03-01T09:10:09;5.60;;;1.40;;
67869;SDS011;54673;52.262;6.830;2023-03-01T09:12:35;5.40;;;1.48;;
67869;SDS011;54673;52.262;6.830;2023-03-01T09:15:01;2.10;;;1.30;;
67869;SDS011;54673;52.262;6.830;2023-03-01T09:17:27;2.10;;;1.37;;
67869;SDS011;54673;52.262;6.830;2023-03-01T09:19:52;5.78;;;1.52;;
67869;SDS011;54673;52.262;6.830;2023-03-01T09:22:18;3.00;;;1.20;;
67869;SDS011;54673;52.262;6.830;2023-03-01T09:24:43;2.67;;;1.37;;
67869;SDS011;54673;52.262;6.830;2023-03-01T09:27:09;3.03;;;1.20;;
67869;SDS011;54673;52.262;6.830;2023-03-01T09:29:36;1.97;;;1.20;;
67869;SDS011;54673;52.262;6.830;2023-03-01T09:32:01;2.90;;;1.40;;
67869;SDS011;54673;52.262;6.830;2023-03-01T09:34:27;2.63;;;1.10;;
67869;SDS011;54673;52.262;6.830;2023-03-01T09:36:53;2.47;;;1.48;;
67869;SDS011;54673;52.262;6.830;2023-03-01T09:39:18;1.87;;;1.20;;
67869;SDS011;54673;52.262;6.830;2023-03-01T09:41:58;1.90;;;1.10;;
67869;SDS011;54673;52.262;6.830;2023-03-01T09:45:16;6.88;;;1.65;;
67869;SDS011;54673;52.262;6.830;2023-03-01T09:47:19;1.80;;;1.17;;
67869;SDS011;54673;52.262;6.830;2023-03-01T09:49:53;2.67;;;1.58;;
67869;SDS011;54673;52.262;6.830;2023-03-01T09:55:14;3.92;;;1.60;;
67869;SDS011;54673;52.262;6.830;2023-03-01T10:02:50;11.23;;;2.10;;
67869;SDS011;54673;52.262;6.830;2023-03-01T10:11:04;5.93;;;1.80;;
67869;SDS011;54673;52.262;6.830;2023-03-01T10:13:46;10.50;;;1.75;;
67869;SDS011;54673;52.262;6.830;2023-03-01T10:17:08;11.77;;;1.60;;
67869;SDS011;54673;52.262;6.830;2023-03-01T10:19:20;7.90;;;1.30;;
67869;SDS011;54673;52.262;6.830;2023-03-01T10:21:51;11.18;;;2.03;;
67869;SDS011;54673;52.262;6.830;2023-03-01T10:24:18;5.37;;;1.20;;
67869;SDS011;54673;52.262;6.830;2023-03-01T10:26:59;10.50;;;1.63;;
67869;SDS011;54673;52.262;6.830;2023-03-01T10:29:31;4.97;;;1.60;;
67869;SDS011;54673;52.262;6.830;2023-03-01T10:32:04;6.30;;;1.52;;
67869;SDS011;54673;52.262;6.830;2023-03-01T10:34:34;6.95;;;1.48;;
67869;SDS011;54673;52.262;6.830;2023-03-01T10:37:17;7.70;;;1.30;;
67869;SDS011;54673;52.262;6.830;2023-03-01T10:42:31;5.17;;;1.30;;
67869;SDS011;54673;52.262;6.830;2023-03-01T10:45:14;6.72;;;1.40;;
67869;SDS011;54673;52.262;6.830;2023-03-01T10:47:40;5.13;;;1.70;;
67869;SDS011;54673;52.262;6.830;2023-03-01T10:50:08;8.67;;;1.60;;
67869;SDS011;54673;52.262;6.830;2023-03-01T10:52:44;2.10;;;1.50;;
67869;SDS011;54673;52.262;6.830;2023-03-01T10:55:36;4.53;;;1.37;;
67869;SDS011;54673;52.262;6.830;2023-03-01T10:58:07;7.68;;;1.52;;
67869;SDS011;54673;52.262;6.830;2023-03-01T11:00:50;2.53;;;1.23;;
67869;SDS011;54673;52.262;6.830;2023-03-01T11:03:21;11.75;;;1.63;;
67869;SDS011;54673;52.262;6.830;2023-03-01T11:08:44;3.13;;;1.30;;
67869;SDS011;54673;52.262;6.830;2023-03-01T11:11:19;4.90;;;1.58;;
67869;SDS011;54673;52.262;6.830;2023-03-01T11:14:00;2.90;;;1.37;;
67869;SDS011;54673;52.262;6.830;2023-03-01T11:16:44;2.15;;;1.17;;
67869;SDS011;54673;52.262;6.830;2023-03-01T11:21:37;3.03;;;1.40;;
67869;SDS011;54673;52.262;6.830;2023-03-01T11:24:27;3.15;;;1.77;;
67869;SDS011;54673;52.262;6.830;2023-03-01T11:27:21;2.93;;;2.00;;
67869;SDS011;54673;52.262;6.830;2023-03-01T11:30:00;3.42;;;1.40;;
67869;SDS011;54673;52.262;6.830;2023-03-01T11:32:35;4.63;;;1.40;;
67869;SDS011;54673;52.262;6.830;2023-03-01T11:35:09;3.22;;;1.40;;
67869;SDS011;54673;52.262;6.830;2023-03-01T11:37:50;3.85;;;1.45;;
67869;SDS011;54673;52.262;6.830;2023-03-01T11:40:43;6.03;;;1.40;;
67869;SDS011;54673;52.262;6.830;2023-03-01T11:51:55;4.32;;;1.30;;
67869;SDS011;54673;52.262;6.830;2023-03-01T11:54:37;12.23;;;1.53;;
67869;SDS011;54673;52.262;6.830;2023-03-01T11:57:43;6.15;;;1.67;;
67869;SDS011;54673;52.262;6.830;2023-03-01T12:05:58;15.15;;;2.30;;
67869;SDS011;54673;52.262;6.830;2023-03-01T12:09:01;9.73;;;1.83;;
67869;SDS011;54673;52.262;6.830;2023-03-01T12:11:45;3.35;;;2.00;;
67869;SDS011;54673;52.262;6.830;2023-03-01T12:25:39;6.82;;;1.60;;
67869;SDS011;54673;52.262;6.830;2023-03-01T12:31:32;3.90;;;1.48;;
67869;SDS011;54673;52.262;6.830;2023-03-01T12:49:57;3.55;;;1.30;;
67869;SDS011;54673;52.262;6.830;2023-03-01T12:52:35;5.63;;;1.40;;
67869;SDS011;54673;52.262;6.830;2023-03-01T13:00:45;10.40;;;1.77;;
67869;SDS011;54673;52.262;6.830;2023-03-01T13:06:32;2.00;;;1.37;;
67869;SDS011;54673;52.262;6.830;2023-03-01T13:09:34;4.15;;;1.42;;
67869;SDS011;54673;52.262;6.830;2023-03-01T13:18:04;1.85;;;1.05;;
67869;SDS011;54673;52.262;6.830;2023-03-01T13:20:50;5.13;;;1.67;;
67869;SDS011;54673;52.262;6.830;2023-03-01T13:23:35;2.70;;;1.17;;
67869;SDS011;54673;52.262;6.830;2023-03-01T13:26:07;1.48;;;1.02;;
67869;SDS011;54673;52.262;6.830;2023-03-01T13:33:55;3.67;;;1.40;;
67869;SDS011;54673;52.262;6.830;2023-03-01T13:46:49;5.03;;;1.20;;
67869;SDS011;54673;52.262;6.830;2023-03-01T13:49:17;2.87;;;1.23;;
67869;SDS011;54673;52.262;6.830;2023-03-01T13:51:46;1.30;;;0.90;;
67869;SDS011;54673;52.262;6.830;2023-03-01T13:54:13;2.97;;;1.10;;
67869;SDS011;54673;52.262;6.830;2023-03-01T13:56:41;2.22;;;1.20;;
67869;SDS011;54673;52.262;6.830;2023-03-01T13:59:16;4.13;;;1.00;;
67869;SDS011;54673;52.262;6.830;2023-03-01T14:01:43;2.97;;;1.17;;
67869;SDS011;54673;52.262;6.830;2023-03-01T14:06:48;2.40;;;1.20;;
67869;SDS011;54673;52.262;6.830;2023-03-01T14:09:21;1.55;;;0.85;;
67869;SDS011;54673;52.262;6.830;2023-03-01T14:12:02;3.07;;;1.03;;
67869;SDS011;54673;52.262;6.830;2023-03-01T14:14:51;1.85;;;1.10;;
67869;SDS011;54673;52.262;6.830;2023-03-01T14:22:43;1.75;;;1.10;;
67869;SDS011;54673;52.262;6.830;2023-03-01T14:25:17;1.60;;;1.27;;
67869;SDS011;54673;52.262;6.830;2023-03-01T14:27:57;2.13;;;1.00;;
67869;SDS011;54673;52.262;6.830;2023-03-01T14:30:38;3.70;;;1.10;;
67869;SDS011;54673;52.262;6.830;2023-03-01T14:33:24;2.07;;;1.20;;
67869;SDS011;54673;52.262;6.830;2023-03-01T14:35:59;1.20;;;0.90;;
67869;SDS011;54673;52.262;6.830;2023-03-01T14:38:36;1.00;;;0.88;;
67869;SDS011;54673;52.262;6.830;2023-03-01T14:41:03;1.97;;;1.10;;
67869;SDS011;54673;52.262;6.830;2023-03-01T14:43:41;2.35;;;0.90;;
67869;SDS011;54673;52.262;6.830;2023-03-01T14:46:19;4.07;;;1.05;;
67869;SDS011;54673;52.262;6.830;2023-03-01T14:48:53;2.60;;;1.20;;
67869;SDS011;54673;52.262;6.830;2023-03-01T14:51:23;2.70;;;0.98;;
67869;SDS011;54673;52.262;6.830;2023-03-01T14:53:49;3.08;;;1.00;;
67869;SDS011;54673;52.262;6.830;2023-03-01T14:56:15;2.90;;;1.10;;
67869;SDS011;54673;52.262;6.830;2023-03-01T14:58:44;1.63;;;1.08;;
67869;SDS011;54673;52.262;6.830;2023-03-01T15:01:14;3.60;;;1.00;;
67869;SDS011;54673;52.262;6.830;2023-03-01T15:03:43;1.90;;;0.90;;
67869;SDS011;54673;52.262;6.830;2023-03-01T15:06:14;2.63;;;1.30;;
67869;SDS011;54673;52.262;6.830;2023-03-01T15:08:47;1.93;;;1.00;;
67869;SDS011;54673;52.262;6.830;2023-03-01T15:11:20;1.93;;;1.30;;
67869;SDS011;54673;52.262;6.830;2023-03-01T15:13:51;3.08;;;1.23;;
67869;SDS011;54673;52.262;6.830;2023-03-01T15:16:30;1.87;;;0.90;;
67869;SDS011;54673;52.262;6.830;2023-03-01T15:18:58;3.38;;;0.98;;
67869;SDS011;54673;52.262;6.830;2023-03-01T15:21:31;3.13;;;1.00;;
67869;SDS011;54673;52.262;6.830;2023-03-01T15:26:31;1.35;;;0.88;;
67869;SDS011;54673;52.262;6.830;2023-03-01T15:29:01;4.88;;;1.10;;
67869;SDS011;54673;52.262;6.830;2023-03-01T15:31:28;1.30;;;0.90;;
67869;SDS011;54673;52.262;6.830;2023-03-01T15:37:36;2.10;;;0.90;;
67869;SDS011;54673;52.262;6.830;2023-03-01T15:39:58;2.60;;;1.00;;
67869;SDS011;54673;52.262;6.830;2023-03-01T15:47:49;3.08;;;0.70;;
67869;SDS011;54673;52.262;6.830;2023-03-01T15:50:19;1.40;;;0.90;;
67869;SDS011;54673;52.262;6.830;2023-03-01T15:52:48;1.70;;;0.67;;
67869;SDS011;54673;52.262;6.830;2023-03-01T15:55:16;1.50;;;1.10;;
67869;SDS011;54673;52.262;6.830;2023-03-01T16:00:40;3.13;;;0.80;;
67869;SDS011;54673;52.262;6.830;2023-03-01T16:03:07;1.02;;;0.70;;
67869;SDS011;54673;52.262;6.830;2023-03-01T16:05:36;1.40;;;1.00;;
67869;SDS011;54673;52.262;6.830;2023-03-01T16:08:03;1.20;;;0.80;;
67869;SDS011;54673;52.262;6.830;2023-03-01T16:10:30;2.45;;;0.90;;
67869;SDS011;54673;52.262;6.830;2023-03-01T16:12:57;1.00;;;0.80;;
67869;SDS011;54673;52.262;6.830;2023-03-01T16:15:24;2.43;;;0.80;;
67869;SDS011;54673;52.262;6.830;2023-03-01T16:17:52;1.17;;;0.90;;
67869;SDS011;54673;52.262;6.830;2023-03-01T16:20:18;1.50;;;1.10;;
67869;SDS011;54673;52.262;6.830;2023-03-01T16:22:44;1.23;;;0.77;;
67869;SDS011;54673;52.262;6.830;2023-03-01T16:25:11;1.77;;;0.90;;
67869;SDS011;54673;52.262;6.830;2023-03-01T16:27:41;1.63;;;0.80;;
67869;SDS011;54673;52.262;6.830;2023-03-01T16:30:08;2.25;;;0.70;;
67869;SDS011;54673;52.262;6.830;2023-03-01T16:32:41;4.88;;;0.60;;
67869;SDS011;54673;52.262;6.830;2023-03-01T16:35:09;1.20;;;0.70;;
67869;SDS011;54673;52.262;6.830;2023-03-01T16:37:35;6.90;;;1.00;;
67869;SDS011;54673;52.262;6.830;2023-03-01T16:40:02;2.95;;;0.70;;
67869;SDS011;54673;52.262;6.830;2023-03-01T16:42:33;3.40;;;1.27;;
67869;SDS011;54673;52.262;6.830;2023-03-01T16:45:00;7.53;;;0.90;;
67869;SDS011;54673;52.262;6.830;2023-03-01T16:47:26;2.65;;;0.90;;
67869;SDS011;54673;52.262;6.830;2023-03-01T16:49:52;1.88;;;0.73;;
67869;SDS011;54673;52.262;6.830;2023-03-01T16:52:19;3.70;;;0.87;;
67869;SDS011;54673;52.262;6.830;2023-03-01T16:54:45;0.93;;;0.70;;
67869;SDS011;54673;52.262;6.830;2023-03-01T16:57:11;1.00;;;0.60;;
67869;SDS011;54673;52.262;6.830;2023-03-01T16:59:36;2.15;;;0.70;;
67869;SDS011;54673;52.262;6.830;2023-03-01T17:02:02;1.93;;;1.20;;
67869;SDS011;54673;52.262;6.830;2023-03-01T17:04:35;2.13;;;0.80;;
67869;SDS011;54673;52.262;6.830;2023-03-01T17:07:01;2.97;;;0.90;;
67869;SDS011;54673;52.262;6.830;2023-03-01T17:09:27;3.30;;;0.80;;
67869;SDS011;54673;52.262;6.830;2023-03-01T17:11:52;1.60;;;0.93;;
67869;SDS011;54673;52.262;6.830;2023-03-01T17:14:19;1.27;;;0.88;;
67869;SDS011;54673;52.262;6.830;2023-03-01T17:16:45;1.00;;;0.70;;
67869;SDS011;54673;52.262;6.830;2023-03-01T17:19:10;2.43;;;0.80;;